Time;durP1;ratioP1;P1;durP2;ratioP2;P2;SDS_P1;SDS_P2;PMS_P1;PMS_P2;Temp;Humidity;BMP_temperature;BMP_pressure;BME280_temperature;BME280_humidity;BME280_pressure;Samples;Min_cycle;Max_cycle;Signal;HPM_P1;HPM_P2
2023/01/16 00:03:46;;;;;;;7.10;2.17;;;5.70;99.90;;;;;;2615669;54;20129;-72
2023/01/16 00:09:34;;;;;;;8.03;2.77;;;5.90;99.90;;;;;;2615088;54;20371;-74
2023/01/16 00:15:22;;;;;;;7.20;2.60;;;6.00;99.90;;;;;;2615686;54;20163;-73
2023/01/16 00:21:10;;;;;;;3.97;2.03;;;6.00;99.90;;;;;;2615412;54;20158;-72
2023/01/16 00:26:57;;;;;;;3.80;2.30;;;6.00;99.90;;;;;;2615709;54;20138;-73
2023/01/16 00:29:55;;;;;;;5.37;3.10;;;6.00;99.90;;;;;;2614397;54;20420;-72
2023/01/16 00:32:21;;;;;;;4.50;2.47;;;6.00;99.90;;;;;;2614850;47;20158;-74
2023/01/16 00:38:08;;;;;;;4.73;2.10;;;5.70;99.90;;;;;;2614503;54;20126;-72
2023/01/16 00:43:58;;;;;;;4.57;3.33;;;5.60;99.90;;;;;;2615596;39;20639;-73
2023/01/16 00:49:46;;;;;;;6.00;2.33;;;5.70;99.90;;;;;;2615106;54;20383;-72
2023/01/16 00:55:36;;;;;;;4.23;1.63;;;5.60;99.90;;;;;;2615625;54;20122;-71
2023/01/16 01:01:24;;;;;;;3.80;2.30;;;5.50;99.90;;;;;;2614458;54;20555;-70
2023/01/16 01:07:12;;;;;;;3.90;1.67;;;5.70;99.90;;;;;;2615617;54;20439;-72
2023/01/16 01:12:59;;;;;;;2.57;1.60;;;5.50;99.90;;;;;;2615170;54;20171;-72
2023/01/16 01:18:47;;;;;;;2.10;1.40;;;5.50;99.90;;;;;;2615101;54;20142;-72
2023/01/16 01:24:34;;;;;;;4.70;2.57;;;5.60;99.90;;;;;;2615145;54;20127;-72
2023/01/16 01:34:31;;;;;;;11.40;1.80;;;5.40;99.90;;;;;;2614785;54;20514;-71
2023/01/16 01:40:18;;;;;;;2.90;1.90;;;5.30;99.90;;;;;;2615149;54;20387;-73
2023/01/16 01:46:06;;;;;;;4.87;1.97;;;5.30;99.90;;;;;;2614511;54;20665;-73
2023/01/16 01:51:59;;;;;;;7.70;2.03;;;5.20;99.90;;;;;;2615236;54;20411;-72
2023/01/16 01:57:54;;;;;;;5.80;1.90;;;5.20;99.90;;;;;;2614728;54;20394;-71
2023/01/16 02:03:48;;;;;;;4.00;1.70;;;5.10;99.90;;;;;;2614454;54;20403;-72
2023/01/16 02:09:37;;;;;;;3.10;1.87;;;5.10;99.90;;;;;;2614960;54;20390;-71
2023/01/16 02:15:25;;;;;;;2.90;1.60;;;4.90;99.90;;;;;;2615734;54;20391;-70
2023/01/16 02:21:25;;;;;;;4.53;1.70;;;4.90;99.90;;;;;;2614363;54;20207;-72
2023/01/16 02:27:50;;;;;;;4.67;1.57;;;4.90;99.90;;;;;;2615333;54;20408;-72
2023/01/16 02:33:40;;;;;;;3.07;1.60;;;4.90;99.90;;;;;;2613971;54;20892;-72
2023/01/16 02:46:09;;;;;;;4.47;1.90;;;5.00;99.90;;;;;;2615700;54;20355;-72
2023/01/16 02:58:14;;;;;;;4.53;1.60;;;5.30;99.90;;;;;;2614646;54;20483;-72
2023/01/16 03:17:23;;;;;;;9.67;2.27;;;5.30;99.90;;;;;;2613336;54;20382;-71
2023/01/16 03:23:34;;;;;;;3.60;1.90;;;5.40;99.90;;;;;;2614745;46;20564;-72
2023/01/16 03:29:59;;;;;;;5.40;1.80;;;5.30;99.90;;;;;;2613841;54;20483;-68
2023/01/16 03:35:59;;;;;;;2.23;1.20;;;5.30;99.90;;;;;;2612949;54;20522;-68
2023/01/16 03:41:47;;;;;;;3.10;1.33;;;5.20;99.90;;;;;;2612672;54;20376;-69
2023/01/16 04:00:24;;;;;;;2.37;1.70;;;4.80;99.90;;;;;;2613857;54;20403;-70
2023/01/16 04:06:19;;;;;;;2.67;1.63;;;4.80;99.90;;;;;;2613106;54;20455;-69
2023/01/16 04:12:07;;;;;;;2.33;1.40;;;4.90;99.90;;;;;;2615034;54;20424;-70
2023/01/16 04:17:57;;;;;;;4.00;1.70;;;5.00;99.90;;;;;;2615415;46;20435;-70
2023/01/16 04:23:44;;;;;;;2.00;1.73;;;5.00;99.90;;;;;;2615029;54;20387;-69
2023/01/16 04:29:32;;;;;;;2.60;2.10;;;5.10;99.90;;;;;;2615105;54;20123;-69
2023/01/16 04:35:58;;;;;;;3.03;2.00;;;5.00;99.90;;;;;;2614337;54;20230;-69
2023/01/16 04:38:44;;;;;;;2.60;1.70;;;5.00;99.90;;;;;;2614388;54;20421;-69
2023/01/16 04:44:32;;;;;;;2.07;1.43;;;5.00;99.90;;;;;;2614337;54;20416;-68
2023/01/16 04:50:20;;;;;;;2.57;1.43;;;5.00;99.90;;;;;;2614188;54;20715;-68
2023/01/16 04:56:08;;;;;;;2.80;1.57;;;4.90;99.90;;;;;;2614320;54;20134;-70
2023/01/16 05:01:55;;;;;;;3.10;1.43;;;5.00;99.90;;;;;;2615223;54;20645;-70
2023/01/16 05:07:43;;;;;;;2.33;1.50;;;4.70;99.90;;;;;;2613814;54;20243;-70
2023/01/16 05:13:31;;;;;;;2.93;1.50;;;4.90;99.90;;;;;;2614472;46;20182;-70
2023/01/16 05:19:18;;;;;;;2.20;1.63;;;4.90;99.90;;;;;;2614374;54;20680;-70
2023/01/16 05:25:06;;;;;;;2.40;1.80;;;4.70;99.90;;;;;;2614497;54;20134;-70
2023/01/16 05:30:54;;;;;;;2.50;1.70;;;4.80;99.90;;;;;;2614165;54;20383;-70
2023/01/16 05:34:13;;;;;;;2.63;1.50;;;4.80;99.90;;;;;;2614885;54;20395;-70
2023/01/16 05:36:39;;;;;;;3.57;2.43;;;4.80;99.90;;;;;;2614098;54;20143;-70
2023/01/16 05:42:27;;;;;;;3.43;2.10;;;4.80;99.90;;;;;;2613579;54;20171;-70
2023/01/16 05:48:14;;;;;;;7.43;2.50;;;4.80;99.90;;;;;;2613913;54;20125;-69
2023/01/16 05:54:02;;;;;;;2.33;1.70;;;4.90;99.90;;;;;;2614780;54;20150;-70
2023/01/16 05:59:51;;;;;;;9.00;2.10;;;5.00;99.90;;;;;;2612375;54;20138;-69
2023/01/16 06:05:39;;;;;;;5.20;2.70;;;4.90;99.90;;;;;;2614680;54;20416;-70
2023/01/16 06:11:26;;;;;;;6.00;2.10;;;5.00;99.90;;;;;;2614521;54;20134;-70
2023/01/16 06:17:14;;;;;;;2.53;1.83;;;5.00;99.90;;;;;;2613912;54;20684;-74
2023/01/16 06:23:02;;;;;;;2.90;2.20;;;5.20;99.90;;;;;;2612496;54;20387;-70
2023/01/16 06:28:50;;;;;;;3.77;2.10;;;5.40;99.90;;;;;;2612038;54;20383;-70
2023/01/16 06:38:46;;;;;;;4.10;2.20;;;5.40;99.90;;;;;;2612961;54;20422;-71
2023/01/16 06:44:34;;;;;;;8.00;2.40;;;5.60;99.90;;;;;;2613340;54;20426;-70
2023/01/16 06:50:25;;;;;;;4.70;2.10;;;5.60;99.90;;;;;;2613722;54;20458;-71
2023/01/16 06:56:12;;;;;;;2.10;1.73;;;5.60;99.90;;;;;;2611516;54;20957;-71
2023/01/16 07:02:00;;;;;;;6.80;2.43;;;5.70;99.90;;;;;;2613768;54;20157;-70
2023/01/16 07:07:48;;;;;;;7.77;2.10;;;5.80;99.90;;;;;;2613435;54;20155;-70
2023/01/16 07:10:51;;;;;;;2.57;2.37;;;5.70;99.90;;;;;;2613983;39;20463;-71
2023/01/16 07:13:19;;;;;;;4.43;2.70;;;5.80;99.90;;;;;;2613936;46;20483;-70
2023/01/16 07:31:34;;;;;;;3.60;2.20;;;5.90;99.90;;;;;;2614298;46;20382;-69
2023/01/16 07:34:15;;;;;;;3.07;2.50;;;5.90;99.90;;;;;;2614916;54;20410;-70
2023/01/16 07:36:40;;;;;;;3.87;2.20;;;5.80;99.90;;;;;;2612154;47;20410;-71
2023/01/16 07:42:28;;;;;;;3.63;3.10;;;5.90;99.90;;;;;;2612998;54;20166;-70
2023/01/16 07:48:16;;;;;;;2.87;2.57;;;5.80;99.90;;;;;;2614021;54;20130;-69
2023/01/16 07:54:03;;;;;;;5.10;2.40;;;5.70;99.90;;;;;;2613764;54;20151;-70
2023/01/16 07:59:51;;;;;;;3.30;2.20;;;5.70;99.90;;;;;;2613955;54;20648;-70
2023/01/16 08:05:39;;;;;;;2.40;1.90;;;5.60;99.90;;;;;;2615281;31;20562;-71
2023/01/16 08:17:32;;;;;;;2.03;1.67;;;5.50;99.90;;;;;;2613977;54;20395;-69
2023/01/16 08:23:20;;;;;;;4.43;1.97;;;5.30;99.90;;;;;;2614024;54;20914;-70
2023/01/16 08:29:09;;;;;;;5.90;4.40;;;5.20;99.90;;;;;;2613895;46;20149;-72
2023/01/16 08:38:47;;;;;;;3.50;2.40;;;5.40;99.90;;;;;;2614252;54;20483;-72
2023/01/16 08:56:24;;;;;;;5.60;2.60;;;5.50;99.90;;;;;;2613330;54;20379;-70
2023/01/16 09:02:14;;;;;;;3.70;2.13;;;5.50;99.90;;;;;;2613350;54;20134;-71
2023/01/16 09:08:01;;;;;;;3.13;2.40;;;5.60;99.90;;;;;;2613899;54;20378;-70
2023/01/16 09:13:49;;;;;;;6.57;2.50;;;5.80;99.90;;;;;;2614002;54;21682;-71
2023/01/16 09:19:37;;;;;;;5.47;2.50;;;5.90;99.90;;;;;;2614472;54;20651;-71
2023/01/16 09:25:25;;;;;;;3.07;1.73;;;5.90;99.90;;;;;;2613283;54;20140;-70
2023/01/16 09:31:13;;;;;;;5.70;2.47;;;5.90;99.90;;;;;;2614569;54;20147;-72
2023/01/16 09:37:18;;;;;;;3.20;2.27;;;5.90;99.90;;;;;;2612055;54;20126;-71
2023/01/16 09:40:27;;;;;;;5.23;3.40;;;5.80;99.90;;;;;;2613194;54;20445;-72
2023/01/16 09:46:26;;;;;;;3.00;1.70;;;5.70;99.90;;;;;;2612991;54;21268;-71
2023/01/16 10:04:36;;;;;;;4.87;2.17;;;5.60;99.90;;;;;;2611928;54;20492;-70
2023/01/16 10:39:37;;;;;;;2.30;1.60;;;5.40;99.90;;;;;;2612776;39;20824;-71
2023/01/16 10:51:36;;;;;;;2.67;1.70;;;5.60;99.90;;;;;;2614075;54;20386;-71
2023/01/16 10:57:24;;;;;;;1.90;1.70;;;5.70;99.90;;;;;;2615899;46;20142;-71
2023/01/16 11:09:27;;;;;;;3.10;1.67;;;5.90;99.90;;;;;;2615007;54;20399;-69
2023/01/16 11:21:32;;;;;;;2.53;2.10;;;6.10;99.90;;;;;;2614306;54;20402;-72
2023/01/16 11:27:26;;;;;;;4.37;2.00;;;6.20;99.90;;;;;;2614206;54;20386;-69
2023/01/16 11:33:17;;;;;;;2.00;1.80;;;6.40;99.90;;;;;;2613430;54;20455;-70
2023/01/16 11:39:07;;;;;;;2.07;1.87;;;7.60;99.90;;;;;;2613589;54;20941;-69
2023/01/16 11:51:06;;;;;;;2.83;1.60;;;6.90;99.90;;;;;;2614048;54;20410;-69
2023/01/16 12:27:07;;;;;;;3.90;1.30;;;8.30;99.90;;;;;;2613500;54;20386;-70
2023/01/16 12:53:45;;;;;;;2.77;1.80;;;6.40;99.90;;;;;;2612691;54;20510;-69
2023/01/16 12:59:57;;;;;;;3.10;2.23;;;6.40;99.90;;;;;;2612589;54;21067;-70
2023/01/16 13:05:44;;;;;;;3.60;1.73;;;6.40;99.90;;;;;;2613324;54;20439;-71
2023/01/16 13:18:03;;;;;;;4.23;2.50;;;6.50;99.90;;;;;;2612300;46;20486;-70
2023/01/16 13:23:55;;;;;;;2.90;2.60;;;6.50;99.90;;;;;;2613508;39;20875;-70
2023/01/16 13:29:48;;;;;;;2.40;1.60;;;6.40;99.90;;;;;;2614015;54;20395;-71
2023/01/16 13:51:44;;;;;;;2.40;1.80;;;6.00;99.90;;;;;;2614380;54;20406;-71
2023/01/16 13:57:33;;;;;;;2.77;1.80;;;5.90;99.90;;;;;;2614165;54;20471;-70
2023/01/16 14:03:27;;;;;;;3.37;1.63;;;6.10;99.90;;;;;;2612960;39;20737;-71
2023/01/16 14:09:18;;;;;;;2.90;2.00;;;6.30;99.90;;;;;;2614567;54;20446;-70
2023/01/16 14:37:37;;;;;;;2.53;2.00;;;6.10;99.90;;;;;;2618561;54;20404;-69
2023/01/16 14:56:00;;;;;;;1.80;1.30;;;5.60;99.90;;;;;;2618806;54;20405;-69
2023/01/16 15:08:00;;;;;;;1.90;1.60;;;5.30;99.90;;;;;;2618872;38;20766;-70
2023/01/16 15:30:04;;;;;;;2.00;1.30;;;4.90;99.90;;;;;;2619037;38;20821;-71
2023/01/16 15:35:56;;;;;;;3.30;1.60;;;4.90;99.90;;;;;;2618581;54;20373;-72
2023/01/16 15:48:26;;;;;;;2.83;1.70;;;4.90;99.90;;;;;;2614066;54;20390;-71
2023/01/16 15:54:14;;;;;;;3.90;2.57;;;4.80;99.90;;;;;;2613888;54;20422;-71
2023/01/16 16:00:04;;;;;;;3.17;2.10;;;4.90;99.90;;;;;;2614606;46;20414;-72
2023/01/16 16:06:04;;;;;;;2.50;2.03;;;4.80;99.90;;;;;;2614097;54;20431;-70
2023/01/16 16:11:52;;;;;;;4.17;2.40;;;4.90;99.90;;;;;;2611983;54;20391;-70
2023/01/16 16:30:24;;;;;;;3.87;2.53;;;5.10;99.90;;;;;;2613760;54;20519;-70
2023/01/16 16:36:16;;;;;;;2.87;2.20;;;5.10;99.90;;;;;;2614717;54;20478;-71
2023/01/16 16:48:45;;;;;;;3.73;2.60;;;5.10;99.90;;;;;;2613044;54;20398;-72
2023/01/16 16:54:33;;;;;;;3.87;2.40;;;5.10;99.90;;;;;;2613953;54;20149;-71
2023/01/16 17:00:21;;;;;;;2.87;2.17;;;5.20;99.90;;;;;;2614435;54;20799;-70
2023/01/16 17:06:14;;;;;;;3.50;2.43;;;5.20;99.90;;;;;;2614353;54;20510;-70
2023/01/16 17:18:38;;;;;;;8.43;6.30;;;5.20;99.90;;;;;;2614027;39;22140;-71
2023/01/16 17:24:25;;;;;;;6.53;4.73;;;5.10;99.90;;;;;;2614001;54;20126;-70
2023/01/16 17:30:14;;;;;;;9.07;5.40;;;5.10;99.90;;;;;;2614873;54;20255;-70
2023/01/16 17:47:58;;;;;;;15.73;9.33;;;5.10;99.90;;;;;;2614030;54;20402;-71
2023/01/16 17:53:47;;;;;;;4.10;3.53;;;5.10;99.90;;;;;;2615345;31;20643;-70
2023/01/16 17:59:37;;;;;;;4.03;3.07;;;5.00;99.90;;;;;;2613551;54;20398;-70
2023/01/16 18:05:25;;;;;;;3.30;2.37;;;5.00;99.90;;;;;;2614810;46;20414;-69
2023/01/16 18:17:25;;;;;;;3.33;2.50;;;5.00;99.90;;;;;;2613890;54;20387;-71
2023/01/16 18:23:15;;;;;;;3.60;2.67;;;5.00;99.90;;;;;;2609250;54;20422;-69
2023/01/16 18:29:02;;;;;;;3.00;2.37;;;4.90;99.90;;;;;;2614337;54;21329;-70
2023/01/16 18:35:00;;;;;;;5.40;4.27;;;5.00;99.90;;;;;;2613805;54;20640;-70
2023/01/16 19:05:38;;;;;;;8.80;7.80;;;4.60;99.90;;;;;;2612775;54;20398;-71
2023/01/16 19:11:26;;;;;;;11.90;6.60;;;4.60;99.90;;;;;;2613150;54;20351;-70
2023/01/16 19:17:13;;;;;;;12.43;7.30;;;4.80;99.90;;;;;;2614124;54;20210;-70
2023/01/16 19:23:02;;;;;;;5.33;4.80;;;4.80;99.90;;;;;;2611925;54;20297;-71
2023/01/16 19:25:28;;;;;;;6.40;5.00;;;4.90;99.90;;;;;;2612417;47;20424;-71
2023/01/16 19:27:54;;;;;;;9.60;7.60;;;4.90;99.90;;;;;;2610166;46;20473;-71
2023/01/16 19:33:41;;;;;;;9.70;7.17;;;5.00;99.90;;;;;;2612974;46;20244;-71
2023/01/16 19:39:29;;;;;;;9.43;7.60;;;5.00;99.90;;;;;;2612921;54;20507;-70
2023/01/16 19:51:25;;;;;;;15.60;10.90;;;5.00;99.90;;;;;;2613133;54;20989;-69
2023/01/16 19:57:13;;;;;;;9.10;7.23;;;5.10;99.90;;;;;;2615108;54;20390;-71
2023/01/16 20:03:00;;;;;;;13.00;9.10;;;5.10;99.90;;;;;;2614335;54;20192;-70
2023/01/16 20:08:48;;;;;;;10.53;9.03;;;5.00;99.90;;;;;;2614964;54;20711;-70
2023/01/16 20:14:36;;;;;;;15.40;11.20;;;5.10;99.90;;;;;;2614237;54;20234;-70
2023/01/16 20:20:23;;;;;;;11.43;8.90;;;5.00;99.90;;;;;;2614369;39;20522;-72
2023/01/16 20:30:02;;;;;;;10.43;8.30;;;4.90;99.90;;;;;;2614161;54;20542;-71
2023/01/16 20:48:29;;;;;;;10.37;8.90;;;4.80;99.90;;;;;;2614290;54;20932;-71
2023/01/16 20:54:17;;;;;;;17.73;11.20;;;4.70;99.90;;;;;;2614553;54;20864;-71
2023/01/16 21:00:05;;;;;;;20.10;10.33;;;4.40;99.90;;;;;;2614056;39;20525;-71
2023/01/16 21:05:53;;;;;;;13.00;9.73;;;4.10;99.90;;;;;;2614533;54;20499;-72
2023/01/16 21:23:56;;;;;;;11.60;8.60;;;4.10;99.90;;;;;;2611251;54;20495;-71
2023/01/16 21:29:43;;;;;;;12.17;7.93;;;4.10;99.90;;;;;;2611672;54;20716;-70
2023/01/16 21:35:30;;;;;;;9.87;7.53;;;4.10;99.90;;;;;;2612143;54;20158;-70
2023/01/16 21:41:18;;;;;;;9.00;7.27;;;4.20;99.90;;;;;;2611874;54;20252;-71
2023/01/16 21:47:05;;;;;;;12.30;8.50;;;4.20;99.90;;;;;;2612223;39;20256;-70
2023/01/16 21:52:52;;;;;;;8.13;5.53;;;4.20;99.90;;;;;;2613749;54;20508;-70
2023/01/16 21:58:43;;;;;;;11.67;8.73;;;4.20;99.90;;;;;;2614215;54;20130;-70
2023/01/16 22:04:31;;;;;;;12.53;9.20;;;4.20;99.90;;;;;;2612610;54;20935;-71
2023/01/16 22:10:20;;;;;;;8.70;7.10;;;4.30;99.90;;;;;;2614229;54;20154;-72
2023/01/16 22:22:24;;;;;;;9.17;6.37;;;4.40;99.90;;;;;;2614852;39;21121;-70
2023/01/16 22:25:31;;;;;;;8.87;6.00;;;4.40;99.90;;;;;;2613877;47;21017;-69
2023/01/16 22:27:57;;;;;;;6.00;4.80;;;4.40;99.90;;;;;;2615170;54;20470;-70
2023/01/16 22:33:45;;;;;;;6.57;5.20;;;4.50;99.90;;;;;;2614866;54;20408;-70
2023/01/16 22:39:32;;;;;;;6.40;5.63;;;4.40;99.90;;;;;;2613849;54;20142;-71
2023/01/16 22:51:28;;;;;;;7.13;5.67;;;4.50;99.90;;;;;;2615835;39;21197;-71
2023/01/16 22:57:15;;;;;;;5.67;4.10;;;4.40;99.90;;;;;;2615260;54;20394;-70
2023/01/16 23:03:03;;;;;;;7.37;5.80;;;4.40;99.90;;;;;;2613373;54;20154;-69
2023/01/16 23:08:52;;;;;;;7.63;4.87;;;4.30;99.90;;;;;;2614519;54;20157;-71
2023/01/16 23:14:40;;;;;;;6.43;5.23;;;4.30;99.90;;;;;;2614893;54;20398;-71
2023/01/16 23:20:27;;;;;;;7.70;5.53;;;4.20;99.90;;;;;;2614245;54;21315;-70
2023/01/16 23:30:02;;;;;;;10.83;7.07;;;4.10;99.90;;;;;;2614869;54;20446;-69
2023/01/16 23:35:50;;;;;;;7.43;5.50;;;4.10;99.90;;;;;;2614327;46;20434;-72
2023/01/16 23:47:45;;;;;;;7.37;4.67;;;4.20;99.90;;;;;;2613031;54;20411;-70
2023/01/16 23:53:33;;;;;;;6.00;4.43;;;4.30;99.90;;;;;;2614575;46;20169;-70
2023/01/16 23:59:20;;;;;;;8.60;6.47;;;4.30;99.90;;;;;;2614261;54;20154;-70
